createdAt,value
2017-11-04T00:00:12.394Z,1.83
2017-11-04T00:02:38.527Z,1.74
2017-11-04T00:05:04.584Z,1.64
2017-11-04T00:07:30.722Z,1.74
2017-11-04T00:09:56.738Z,1.87
2017-11-04T00:12:22.811Z,1.95
2017-11-04T00:14:48.942Z,1.86
2017-11-04T00:17:15.020Z,1.87
2017-11-04T00:19:41.070Z,1.78
2017-11-04T00:22:07.206Z,1.89
2017-11-04T00:24:33.323Z,1.71
2017-11-04T00:26:59.522Z,1.53
2017-11-04T00:29:25.684Z,1.40
2017-11-04T00:31:51.810Z,1.35
2017-11-04T00:34:18.143Z,1.30
2017-11-04T00:36:44.247Z,1.26
2017-11-04T00:39:10.364Z,1.16
2017-11-04T00:41:36.465Z,1.23
2017-11-04T00:44:02.561Z,1.27
2017-11-04T00:46:28.678Z,1.19
2017-11-04T00:48:54.754Z,1.06
2017-11-04T00:51:20.862Z,1.17
2017-11-04T00:53:47.216Z,1.22
2017-11-04T00:56:13.270Z,1.22
2017-11-04T00:58:39.338Z,1.21
2017-11-04T01:01:05.420Z,1.20
2017-11-04T01:03:31.538Z,1.28
2017-11-04T01:05:57.634Z,1.23
2017-11-04T01:08:23.732Z,1.16
2017-11-04T01:10:49.799Z,1.19
2017-11-04T01:13:15.994Z,1.25
2017-11-04T01:15:42.075Z,1.31
2017-11-04T01:18:08.163Z,1.41
2017-11-04T01:20:34.258Z,1.58
2017-11-04T01:23:00.298Z,1.42
2017-11-04T01:25:26.561Z,1.58
2017-11-04T01:27:52.645Z,1.53
2017-11-04T01:30:18.678Z,1.71
2017-11-04T01:32:44.778Z,1.71
2017-11-04T01:35:10.847Z,1.56
2017-11-04T01:37:36.908Z,1.51
2017-11-04T01:40:03.155Z,1.54
2017-11-04T01:42:29.253Z,1.45
2017-11-04T01:44:55.297Z,1.53
2017-11-04T01:47:21.322Z,1.47
2017-11-04T01:49:47.430Z,1.37
2017-11-04T01:52:13.550Z,1.44
2017-11-04T01:54:39.578Z,1.43
2017-11-04T01:57:05.659Z,1.48
2017-11-04T01:59:31.714Z,1.55
2017-11-04T02:01:57.793Z,1.50
2017-11-04T02:04:23.811Z,1.38
2017-11-04T02:06:49.858Z,1.39
2017-11-04T02:09:18.808Z,1.33
2017-11-04T02:11:44.926Z,1.16
2017-11-04T02:14:10.990Z,1.27
2017-11-04T02:16:37.071Z,1.38
2017-11-04T02:19:03.101Z,1.42
2017-11-04T02:21:29.182Z,1.35
2017-11-04T02:23:55.248Z,1.31
2017-11-04T02:26:21.331Z,1.30
2017-11-04T02:28:47.420Z,1.24
2017-11-04T02:31:13.538Z,1.31
2017-11-04T02:33:39.741Z,1.35
2017-11-04T02:36:05.834Z,1.28
2017-11-04T02:38:31.867Z,1.30
2017-11-04T02:40:58.061Z,1.27
2017-11-04T02:43:24.085Z,1.26
2017-11-04T02:45:50.182Z,1.27
2017-11-04T02:48:16.347Z,1.27
2017-11-04T02:50:42.402Z,1.38
2017-11-04T02:53:08.546Z,1.15
2017-11-04T02:55:34.558Z,1.23
2017-11-04T02:58:00.639Z,1.47
2017-11-04T03:00:26.758Z,1.44
2017-11-04T03:02:52.814Z,1.41
2017-11-04T03:05:18.876Z,1.29
2017-11-04T03:07:44.963Z,1.27
2017-11-04T03:10:11.072Z,1.40
2017-11-04T03:12:37.192Z,1.35
2017-11-04T03:15:03.270Z,1.37
2017-11-04T03:17:29.338Z,1.27
2017-11-04T03:19:55.428Z,1.24
2017-11-04T03:22:21.566Z,1.21
2017-11-04T03:24:47.726Z,1.27
2017-11-04T03:27:13.774Z,1.31
2017-11-04T03:29:39.954Z,1.20
2017-11-04T03:32:06.014Z,1.30
2017-11-04T03:34:32.094Z,1.32
2017-11-04T03:36:58.491Z,1.29
2017-11-04T03:39:24.589Z,1.22
2017-11-04T03:41:50.687Z,1.17
2017-11-04T03:44:16.797Z,1.28
2017-11-04T03:46:42.891Z,1.16
2017-11-04T03:49:09.018Z,1.27
2017-11-04T03:51:35.069Z,1.39
2017-11-04T03:54:01.186Z,1.45
2017-11-04T03:56:27.282Z,1.43
2017-11-04T03:58:55.306Z,1.28
2017-11-04T04:01:21.394Z,1.04
2017-11-04T04:03:47.465Z,1.02
2017-11-04T04:06:13.618Z,1.20
2017-11-04T04:08:39.718Z,1.33
2017-11-04T04:11:05.798Z,1.22
2017-11-04T04:13:31.933Z,1.26
2017-11-04T04:15:57.943Z,1.19
2017-11-04T04:18:23.998Z,1.35
2017-11-04T04:20:50.114Z,1.45
2017-11-04T04:23:16.203Z,1.40
2017-11-04T04:25:42.680Z,1.33
2017-11-04T04:28:08.767Z,1.17
2017-11-04T04:30:34.855Z,1.26
2017-11-04T04:33:00.969Z,1.04
2017-11-04T04:35:27.033Z,1.22
2017-11-04T04:37:53.546Z,1.19
2017-11-04T04:40:19.710Z,1.14
2017-11-04T04:42:45.851Z,1.08
2017-11-04T04:45:11.999Z,1.01
2017-11-04T04:47:38.129Z,0.88
2017-11-04T04:50:04.328Z,0.92
2017-11-04T04:52:30.361Z,0.94
2017-11-04T04:54:56.398Z,1.00
2017-11-04T04:57:22.614Z,1.25
2017-11-04T04:59:48.713Z,1.29
2017-11-04T05:02:14.816Z,1.30
2017-11-04T05:04:40.923Z,1.34
2017-11-04T05:07:07.021Z,1.30
2017-11-04T05:09:33.550Z,1.35
2017-11-04T05:11:59.602Z,1.37
2017-11-04T05:14:25.663Z,1.40
2017-11-04T05:16:51.824Z,1.42
2017-11-04T05:19:17.887Z,1.40
2017-11-04T05:21:43.954Z,1.41
2017-11-04T05:24:10.155Z,1.51
2017-11-04T05:26:36.270Z,1.46
2017-11-04T05:29:02.392Z,1.44
2017-11-04T05:31:28.498Z,1.40
2017-11-04T05:33:54.583Z,1.40
2017-11-04T05:36:20.717Z,1.47
2017-11-04T05:38:46.798Z,1.48
2017-11-04T05:41:12.860Z,1.47
2017-11-04T05:43:38.966Z,1.40
2017-11-04T05:46:05.417Z,1.42
2017-11-04T05:48:31.487Z,1.40
2017-11-04T05:50:57.644Z,1.43
2017-11-04T05:53:24.091Z,1.35
2017-11-04T05:55:53.013Z,1.45
2017-11-04T05:58:19.114Z,1.38
2017-11-04T06:00:45.568Z,1.39
2017-11-04T06:03:11.631Z,1.24
2017-11-04T06:05:37.744Z,1.32
2017-11-04T06:08:03.841Z,1.35
2017-11-04T06:10:29.923Z,1.32
2017-11-04T06:12:55.994Z,1.28
2017-11-04T06:15:22.411Z,1.27
2017-11-04T06:17:48.493Z,1.30
2017-11-04T06:20:14.563Z,1.37
2017-11-04T06:22:40.708Z,1.31
2017-11-04T06:25:06.794Z,1.27
2017-11-04T06:27:32.851Z,1.32
2017-11-04T06:29:59.027Z,1.52
2017-11-04T06:32:26.021Z,1.43
2017-11-04T06:34:52.118Z,1.39
2017-11-04T06:37:18.335Z,1.48
2017-11-04T06:39:44.505Z,1.47
2017-11-04T06:42:10.563Z,1.41
2017-11-04T06:44:37.078Z,1.47
2017-11-04T06:47:03.146Z,1.46
2017-11-04T06:49:29.231Z,1.53
2017-11-04T06:51:55.783Z,1.44
2017-11-04T06:54:21.771Z,1.45
2017-11-04T06:56:47.840Z,1.57
2017-11-04T06:59:13.993Z,1.61
2017-11-04T07:01:40.045Z,1.74
2017-11-04T07:04:06.155Z,1.66
2017-11-04T07:06:32.340Z,1.73
2017-11-04T07:08:58.398Z,1.77
2017-11-04T07:11:24.477Z,1.69
2017-11-04T07:13:50.620Z,1.67
2017-11-04T07:16:16.683Z,1.64
2017-11-04T07:18:42.763Z,1.63
2017-11-04T07:21:08.859Z,1.61
2017-11-04T07:23:34.940Z,1.70
2017-11-04T07:26:00.987Z,1.82
2017-11-04T07:28:27.079Z,1.69
2017-11-04T07:30:53.145Z,1.92
2017-11-04T07:33:19.227Z,1.96
2017-11-04T07:35:45.302Z,1.91
2017-11-04T07:38:11.802Z,2.05
2017-11-04T07:40:37.937Z,2.16
2017-11-04T07:43:04.030Z,2.31
2017-11-04T07:45:30.091Z,2.37
2017-11-04T07:47:56.194Z,2.35
2017-11-04T07:50:22.287Z,2.42
2017-11-04T07:52:48.402Z,2.47
2017-11-04T07:55:14.513Z,2.57
2017-11-04T07:57:40.657Z,2.58
2017-11-04T08:00:06.794Z,2.69
2017-11-04T08:02:32.889Z,2.59
2017-11-04T08:04:59.014Z,2.65
2017-11-04T08:07:25.304Z,2.77
2017-11-04T08:09:51.449Z,2.71
2017-11-04T08:12:17.545Z,2.59
2017-11-04T08:14:43.621Z,2.61
2017-11-04T08:17:09.727Z,2.57
2017-11-04T08:19:35.834Z,2.67
2017-11-04T08:22:01.923Z,2.81
2017-11-04T08:24:27.952Z,2.86
2017-11-04T08:26:54.095Z,3.13
2017-11-04T08:29:20.279Z,3.23
2017-11-04T08:31:46.471Z,3.24
2017-11-04T08:34:12.590Z,3.35
2017-11-04T08:36:38.675Z,3.53
2017-11-04T08:39:04.776Z,3.68
2017-11-04T08:41:30.871Z,3.68
2017-11-04T08:43:56.982Z,3.73
2017-11-04T08:46:23.104Z,3.89
2017-11-04T08:48:49.195Z,4.00
2017-11-04T08:51:15.299Z,4.05
2017-11-04T08:53:41.394Z,4.20
2017-11-04T08:56:07.525Z,4.29
2017-11-04T08:58:33.704Z,4.36
2017-11-04T09:00:59.920Z,4.52
2017-11-04T09:03:26.002Z,4.71
2017-11-04T09:05:52.498Z,4.81
2017-11-04T09:08:18.575Z,4.90
2017-11-04T09:10:44.683Z,4.67
2017-11-04T09:13:10.793Z,4.84
2017-11-04T09:15:36.882Z,4.89
2017-11-04T09:18:03.007Z,4.75
2017-11-04T09:20:29.973Z,4.95
2017-11-04T09:22:56.047Z,5.09
2017-11-04T09:25:22.178Z,5.15
2017-11-04T09:27:48.275Z,5.23
2017-11-04T09:30:14.458Z,5.38
2017-11-04T09:32:40.547Z,5.53
2017-11-04T09:35:06.652Z,5.51
2017-11-04T09:37:32.756Z,5.48
2017-11-04T09:39:58.798Z,5.49
2017-11-04T09:42:24.809Z,5.68
2017-11-04T09:44:50.859Z,6.05
2017-11-04T09:47:16.926Z,6.00
2017-11-04T09:49:43.307Z,6.02
2017-11-04T09:52:09.407Z,5.98
2017-11-04T09:54:36.037Z,6.06
2017-11-04T09:57:02.159Z,6.17
2017-11-04T09:59:28.246Z,6.44
2017-11-04T10:01:54.416Z,6.25
2017-11-04T10:04:20.543Z,6.35
2017-11-04T10:06:46.618Z,6.19
2017-11-04T10:09:12.803Z,6.48
2017-11-04T10:11:38.895Z,6.62
2017-11-04T10:14:04.947Z,6.41
2017-11-04T10:16:31.003Z,6.61
2017-11-04T10:18:57.091Z,6.72
2017-11-04T10:21:23.142Z,6.70
2017-11-04T10:23:49.236Z,6.62
2017-11-04T10:26:15.294Z,6.71
2017-11-04T10:28:41.428Z,6.69
2017-11-04T10:31:07.558Z,6.69
2017-11-04T10:33:33.585Z,6.68
2017-11-04T10:35:59.599Z,6.70
2017-11-04T10:38:25.660Z,6.80
2017-11-04T10:40:51.723Z,6.77
2017-11-04T10:43:17.807Z,6.74
2017-11-04T10:45:43.886Z,6.74
2017-11-04T10:48:09.988Z,6.89
2017-11-04T10:50:36.075Z,7.06
2017-11-04T10:53:02.183Z,7.22
2017-11-04T10:55:28.263Z,7.23
2017-11-04T10:57:54.319Z,7.32
2017-11-04T11:00:20.442Z,7.44
2017-11-04T11:02:46.537Z,7.47
2017-11-04T11:05:12.591Z,7.55
2017-11-04T11:07:38.698Z,7.56
2017-11-04T11:10:04.836Z,7.45
2017-11-04T11:12:31.034Z,7.53
2017-11-04T11:14:57.111Z,7.63
2017-11-04T11:17:23.191Z,7.63
2017-11-04T11:19:49.602Z,7.89
2017-11-04T11:22:15.675Z,8.04
2017-11-04T11:24:41.730Z,8.22
2017-11-04T11:27:07.975Z,8.34
2017-11-04T11:29:34.154Z,8.43
2017-11-04T11:32:00.226Z,8.35
2017-11-04T11:34:26.365Z,8.65
2017-11-04T11:36:52.524Z,8.74
2017-11-04T11:39:18.586Z,8.80
2017-11-04T11:41:44.774Z,8.76
2017-11-04T11:44:10.866Z,8.80
2017-11-04T11:46:36.974Z,8.87
2017-11-04T11:49:03.175Z,8.84
2017-11-04T11:51:29.298Z,9.07
2017-11-04T11:53:55.374Z,8.98
2017-11-04T11:56:21.463Z,9.11
2017-11-04T11:58:47.569Z,9.41
2017-11-04T12:01:13.742Z,9.61
2017-11-04T12:03:39.880Z,9.80
2017-11-04T12:06:05.986Z,9.84
2017-11-04T12:08:32.159Z,9.92
2017-11-04T12:10:58.252Z,9.94
2017-11-04T12:13:24.354Z,9.81
2017-11-04T12:15:50.479Z,9.87
2017-11-04T12:18:16.499Z,9.88
2017-11-04T12:20:42.614Z,9.85
2017-11-04T12:23:08.751Z,9.77
2017-11-04T12:25:34.864Z,9.78
2017-11-04T12:28:00.960Z,9.86
2017-11-04T12:30:27.133Z,9.84
2017-11-04T12:32:53.531Z,9.82
2017-11-04T12:35:19.606Z,9.92
2017-11-04T12:37:45.703Z,9.94
2017-11-04T12:40:11.805Z,10.09
2017-11-04T12:42:37.890Z,10.28
2017-11-04T12:45:04.299Z,10.39
2017-11-04T12:47:30.447Z,10.31
2017-11-04T12:49:56.577Z,10.32
2017-11-04T12:52:22.718Z,10.59
2017-11-04T12:54:48.779Z,10.64
2017-11-04T12:57:15.195Z,10.61
2017-11-04T12:59:41.267Z,10.43
2017-11-04T13:02:07.363Z,10.54
2017-11-04T13:04:33.451Z,10.62
2017-11-04T13:06:59.487Z,10.79
2017-11-04T13:09:25.642Z,10.91
2017-11-04T13:11:51.755Z,10.94
2017-11-04T13:14:17.825Z,11.13
2017-11-04T13:16:44.006Z,11.05
2017-11-04T13:19:10.130Z,10.78
2017-11-04T13:21:36.199Z,10.68
2017-11-04T13:24:02.337Z,10.58
2017-11-04T13:26:28.371Z,10.60
2017-11-04T13:28:54.447Z,10.71
2017-11-04T13:31:20.620Z,10.53
2017-11-04T13:33:46.799Z,10.43
2017-11-04T13:36:12.856Z,10.40
2017-11-04T13:38:38.954Z,10.43
2017-11-04T13:41:05.083Z,10.34
2017-11-04T13:43:31.241Z,10.30
2017-11-04T13:45:57.387Z,10.23
2017-11-04T13:48:23.514Z,10.21
2017-11-04T13:50:49.690Z,10.27
2017-11-04T13:53:15.742Z,10.21
2017-11-04T13:55:41.839Z,10.19
2017-11-04T13:58:07.947Z,10.25
2017-11-04T14:00:34.032Z,10.23
2017-11-04T14:03:00.103Z,10.23
2017-11-04T14:05:26.483Z,10.15
2017-11-04T14:07:52.555Z,10.14
2017-11-04T14:10:18.693Z,10.13
2017-11-04T14:12:44.893Z,10.60
2017-11-04T14:15:11.024Z,10.90
2017-11-04T14:17:37.082Z,10.70
2017-11-04T14:20:03.223Z,10.50
2017-11-04T14:22:29.297Z,10.48
2017-11-04T14:24:55.361Z,10.44
2017-11-04T14:27:21.500Z,10.42
2017-11-04T14:29:47.559Z,10.30
2017-11-04T14:32:13.984Z,10.15
2017-11-04T14:34:40.067Z,10.18
2017-11-04T14:37:06.147Z,10.03
2017-11-04T14:39:32.270Z,10.05
2017-11-04T14:41:58.439Z,10.05
2017-11-04T14:44:24.575Z,10.12
2017-11-04T14:46:51.090Z,10.60
2017-11-04T14:49:17.273Z,10.73
2017-11-04T14:51:43.342Z,10.96
2017-11-04T14:54:09.427Z,11.06
2017-11-04T14:56:35.527Z,11.00
2017-11-04T14:59:01.757Z,10.68
2017-11-04T15:01:27.864Z,10.48
2017-11-04T15:03:53.943Z,10.30
2017-11-04T15:06:20.075Z,10.08
2017-11-04T15:08:46.171Z,9.90
2017-11-04T15:11:12.267Z,9.79
2017-11-04T15:13:38.361Z,9.58
2017-11-04T15:16:04.547Z,9.52
2017-11-04T15:18:30.647Z,9.54
2017-11-04T15:20:56.803Z,9.50
2017-11-04T15:23:22.931Z,9.52
2017-11-04T15:25:49.030Z,9.44
2017-11-04T15:28:15.139Z,9.40
2017-11-04T15:30:41.227Z,9.20
2017-11-04T15:33:07.345Z,9.10
2017-11-04T15:35:33.494Z,8.94
2017-11-04T15:37:59.618Z,8.82
2017-11-04T15:40:25.714Z,8.63
2017-11-04T15:42:51.806Z,8.58
2017-11-04T15:45:17.916Z,8.55
2017-11-04T15:47:44.046Z,8.51
2017-11-04T15:50:10.162Z,8.49
2017-11-04T15:52:36.259Z,8.55
2017-11-04T15:55:02.457Z,8.43
2017-11-04T15:57:28.594Z,8.37
2017-11-04T15:59:54.761Z,8.15
2017-11-04T16:02:20.843Z,8.17
2017-11-04T16:04:47.061Z,8.06
2017-11-04T16:07:13.136Z,8.03
2017-11-04T16:09:39.250Z,7.96
2017-11-04T16:12:05.488Z,7.91
2017-11-04T16:14:31.571Z,7.85
2017-11-04T16:16:57.661Z,7.69
2017-11-04T16:19:23.782Z,7.59
2017-11-04T16:21:49.883Z,7.64
2017-11-04T16:24:15.963Z,7.60
2017-11-04T16:26:42.012Z,7.62
2017-11-04T16:29:08.095Z,7.55
2017-11-04T16:31:34.185Z,7.48
2017-11-04T16:34:00.230Z,7.49
2017-11-04T16:36:26.329Z,7.43
2017-11-04T16:38:52.488Z,7.34
2017-11-04T16:41:18.598Z,7.54
2017-11-04T16:43:44.714Z,7.22
2017-11-04T16:46:10.942Z,7.15
2017-11-04T16:48:37.053Z,7.09
2017-11-04T16:51:03.170Z,7.01
2017-11-04T16:53:29.284Z,7.04
2017-11-04T16:55:55.367Z,6.82
2017-11-04T16:58:21.467Z,6.84
2017-11-04T17:00:47.533Z,6.76
2017-11-04T17:03:13.646Z,6.81
2017-11-04T17:05:39.734Z,6.77
2017-11-04T17:08:05.829Z,6.73
2017-11-04T17:10:31.932Z,6.65
2017-11-04T17:12:57.997Z,6.60
2017-11-04T17:15:24.194Z,6.60
2017-11-04T17:17:50.263Z,6.52
2017-11-04T17:20:16.356Z,6.47
2017-11-04T17:22:42.482Z,6.29
2017-11-04T17:25:08.549Z,6.30
2017-11-04T17:27:34.730Z,6.33
2017-11-04T17:30:00.791Z,6.39
2017-11-04T17:32:26.963Z,6.30
2017-11-04T17:34:53.058Z,6.30
2017-11-04T17:37:19.179Z,6.26
2017-11-04T17:39:45.277Z,6.25
2017-11-04T17:42:11.585Z,6.04
2017-11-04T17:44:37.670Z,5.96
2017-11-04T17:47:03.802Z,5.93
2017-11-04T17:49:29.907Z,5.96
2017-11-04T17:51:56.038Z,5.94
2017-11-04T17:54:22.152Z,5.94
2017-11-04T17:56:48.221Z,5.90
2017-11-04T17:59:14.644Z,5.90
2017-11-04T18:01:40.712Z,5.89
2017-11-04T18:04:06.814Z,5.87
2017-11-04T18:06:33.052Z,5.78
2017-11-04T18:08:59.169Z,5.76
2017-11-04T18:11:25.243Z,5.69
2017-11-04T18:13:51.349Z,5.57
2017-11-04T18:16:17.427Z,5.49
2017-11-04T18:18:43.544Z,5.48
2017-11-04T18:21:10.013Z,5.51
2017-11-04T18:23:36.109Z,5.48
2017-11-04T18:26:02.260Z,5.51
2017-11-04T18:28:28.382Z,5.51
2017-11-04T18:30:54.535Z,5.56
2017-11-04T18:33:20.622Z,5.62
2017-11-04T18:35:47.163Z,5.54
2017-11-04T18:38:13.274Z,5.61
2017-11-04T18:40:39.378Z,5.56
2017-11-04T18:43:05.529Z,5.46
2017-11-04T18:45:31.653Z,5.40
2017-11-04T18:47:57.755Z,5.33
2017-11-04T18:50:23.864Z,5.34
2017-11-04T18:52:49.979Z,5.34
2017-11-04T18:55:16.075Z,5.33
2017-11-04T18:57:42.486Z,5.29
2017-11-04T19:00:08.615Z,5.26
2017-11-04T19:02:34.947Z,5.28
2017-11-04T19:05:01.438Z,5.26
2017-11-04T19:07:27.592Z,5.18
2017-11-04T19:09:53.674Z,5.14
2017-11-04T19:12:19.791Z,5.15
2017-11-04T19:14:45.891Z,5.23
2017-11-04T19:17:12.283Z,5.20
2017-11-04T19:19:38.434Z,5.08
2017-11-04T19:22:04.596Z,5.01
2017-11-04T19:24:31.051Z,4.87
2017-11-04T19:26:57.126Z,4.89
2017-11-04T19:29:23.223Z,4.82
2017-11-04T19:31:49.298Z,4.82
2017-11-04T19:34:15.373Z,4.81
2017-11-04T19:36:41.811Z,4.74
2017-11-04T19:39:07.906Z,4.63
2017-11-04T19:41:34.031Z,4.61
2017-11-04T19:44:00.478Z,4.63
2017-11-04T19:46:26.603Z,4.63
2017-11-04T19:48:52.822Z,4.64
2017-11-04T19:51:19.437Z,4.53
2017-11-04T19:53:45.556Z,4.58
2017-11-04T19:56:11.624Z,4.61
2017-11-04T19:58:38.606Z,4.60
2017-11-04T20:01:04.727Z,4.56
2017-11-04T20:03:30.840Z,4.58
2017-11-04T20:05:57.424Z,4.59
2017-11-04T20:08:23.643Z,4.60
2017-11-04T20:10:49.852Z,4.57
2017-11-04T20:13:16.287Z,4.35
2017-11-04T20:15:42.469Z,4.25
2017-11-04T20:18:08.661Z,4.28
2017-11-04T20:20:34.917Z,4.31
2017-11-04T20:23:01.049Z,4.30
2017-11-04T20:25:27.553Z,4.36
2017-11-04T20:27:53.696Z,4.35
2017-11-04T20:30:19.910Z,4.31
2017-11-04T20:32:46.099Z,4.32
2017-11-04T20:35:12.305Z,4.04
2017-11-04T20:37:38.806Z,4.05
2017-11-04T20:40:05.058Z,3.87
2017-11-04T20:42:31.384Z,3.77
2017-11-04T20:44:57.642Z,3.92
2017-11-04T20:47:23.785Z,4.08
2017-11-04T20:49:50.281Z,4.18
2017-11-04T20:52:16.438Z,4.24
2017-11-04T20:54:42.715Z,4.29
2017-11-04T20:57:09.288Z,4.21
2017-11-04T20:59:35.452Z,4.18
2017-11-04T21:02:01.627Z,4.09
2017-11-04T21:04:28.210Z,4.10
2017-11-04T21:06:54.376Z,4.17
2017-11-04T21:09:20.600Z,4.07
2017-11-04T21:11:47.095Z,4.06
2017-11-04T21:14:13.814Z,3.92
2017-11-04T21:16:39.963Z,3.71
2017-11-04T21:19:07.076Z,3.75
2017-11-04T21:21:33.205Z,3.71
2017-11-04T21:23:59.760Z,3.69
2017-11-04T21:26:25.923Z,3.60
2017-11-04T21:28:52.071Z,3.59
2017-11-04T21:31:18.291Z,3.63
2017-11-04T21:33:44.386Z,3.67
2017-11-04T21:36:10.876Z,3.75
2017-11-04T21:38:37.037Z,3.89
2017-11-04T21:41:03.142Z,3.91
2017-11-04T21:43:29.556Z,3.71
2017-11-04T21:45:55.639Z,3.42
2017-11-04T21:48:21.756Z,3.42
2017-11-04T21:50:47.899Z,3.61
2017-11-04T21:53:13.999Z,3.64
2017-11-04T21:55:40.516Z,3.77
2017-11-04T21:58:06.617Z,3.86
2017-11-04T22:00:32.752Z,3.73
2017-11-04T22:02:58.868Z,3.48
2017-11-04T22:05:24.948Z,3.53
2017-11-04T22:07:51.454Z,3.47
2017-11-04T22:10:17.533Z,3.47
2017-11-04T22:12:43.622Z,3.39
2017-11-04T22:15:09.708Z,3.37
2017-11-04T22:17:35.788Z,3.43
2017-11-04T22:20:02.259Z,3.38
2017-11-04T22:22:28.387Z,3.43
2017-11-04T22:24:54.483Z,3.51
2017-11-04T22:27:20.595Z,3.59
2017-11-04T22:29:46.685Z,3.70
2017-11-04T22:32:13.136Z,3.76
2017-11-04T22:34:39.264Z,3.95
2017-11-04T22:37:05.362Z,3.98
2017-11-04T22:39:31.481Z,3.87
2017-11-04T22:41:57.538Z,3.73
2017-11-04T22:44:24.084Z,3.82
2017-11-04T22:46:50.172Z,3.77
2017-11-04T22:49:16.282Z,3.79
2017-11-04T22:51:42.402Z,3.76
2017-11-04T22:54:08.471Z,3.67
2017-11-04T22:56:35.055Z,3.70
2017-11-04T22:59:01.143Z,3.76
2017-11-04T23:01:27.297Z,3.70
2017-11-04T23:03:53.829Z,3.76
2017-11-04T23:06:19.926Z,3.76
2017-11-04T23:08:46.019Z,3.78
2017-11-04T23:11:12.070Z,3.86
2017-11-04T23:13:38.210Z,3.87
2017-11-04T23:16:04.659Z,3.86
2017-11-04T23:18:30.766Z,3.79
2017-11-04T23:20:56.854Z,3.82
2017-11-04T23:23:22.934Z,3.77
2017-11-04T23:25:49.027Z,3.76
2017-11-04T23:28:15.414Z,3.86
2017-11-04T23:30:41.538Z,3.81
2017-11-04T23:33:07.582Z,3.85
2017-11-04T23:35:33.738Z,3.86
2017-11-04T23:37:59.905Z,3.92
2017-11-04T23:40:26.335Z,3.79
2017-11-04T23:42:52.444Z,3.58
2017-11-04T23:45:18.544Z,3.56
2017-11-04T23:47:44.651Z,3.65
2017-11-04T23:50:10.743Z,3.93
2017-11-04T23:52:37.300Z,3.88
2017-11-04T23:55:03.450Z,3.95
2017-11-04T23:57:29.501Z,3.82
2017-11-04T23:59:55.607Z,3.71
